createdAt,value
2018-06-15T00:01:40.759Z,1.80
2018-06-15T00:04:10.446Z,2.93
2018-06-15T00:06:40.054Z,2.40
2018-06-15T00:09:09.956Z,1.90
2018-06-15T00:11:39.621Z,2.27
2018-06-15T00:14:09.244Z,1.80
2018-06-15T00:16:38.807Z,1.70
2018-06-15T00:19:08.444Z,1.90
2018-06-15T00:21:38.171Z,1.80
2018-06-15T00:24:07.831Z,1.73
2018-06-15T00:26:37.435Z,1.93
2018-06-15T00:29:07.054Z,2.40
2018-06-15T00:31:36.644Z,1.93
2018-06-15T00:34:06.388Z,1.83
2018-06-15T00:36:36.073Z,1.80
2018-06-15T00:39:08.630Z,2.27
2018-06-15T00:41:38.280Z,2.67
2018-06-15T00:44:07.922Z,2.00
2018-06-15T00:46:37.550Z,2.60
2018-06-15T00:49:07.700Z,1.80
2018-06-15T00:51:37.811Z,1.93
2018-06-15T00:54:07.781Z,1.67
2018-06-15T00:56:46.993Z,1.80
2018-06-15T00:59:16.597Z,1.80
2018-06-15T01:01:46.222Z,1.70
2018-06-15T01:04:15.884Z,1.77
2018-06-15T01:06:45.523Z,1.90
2018-06-15T01:09:15.136Z,1.63
2018-06-15T01:11:44.698Z,2.03
2018-06-15T01:14:14.476Z,2.10
2018-06-15T01:16:44.323Z,2.00
2018-06-15T01:19:13.887Z,2.30
2018-06-15T01:21:43.503Z,1.20
2018-06-15T01:24:13.145Z,1.33
2018-06-15T01:26:42.912Z,1.70
2018-06-15T01:29:12.604Z,2.23
2018-06-15T01:31:42.330Z,2.10
2018-06-15T01:34:11.943Z,2.20
2018-06-15T01:36:41.643Z,2.73
2018-06-15T01:39:12.110Z,2.00
2018-06-15T01:41:41.826Z,2.00
2018-06-15T01:44:11.520Z,2.00
2018-06-15T01:46:41.114Z,1.67
2018-06-15T01:49:10.732Z,2.60
2018-06-15T01:51:46.007Z,1.73
2018-06-15T01:54:15.586Z,2.00
2018-06-15T01:56:45.166Z,1.90
2018-06-15T01:59:14.767Z,1.60
2018-06-15T02:01:44.429Z,2.00
2018-06-15T02:04:14.026Z,2.87
2018-06-15T02:06:43.726Z,1.40
2018-06-15T02:09:13.336Z,1.70
2018-06-15T02:11:43.095Z,2.00
2018-06-15T02:14:12.753Z,1.90
2018-06-15T02:16:42.443Z,1.70
2018-06-15T02:19:12.152Z,1.73
2018-06-15T02:21:41.735Z,1.70
2018-06-15T02:24:11.391Z,1.80
2018-06-15T02:26:41.023Z,1.60
2018-06-15T02:29:10.721Z,1.73
2018-06-15T02:31:40.387Z,1.43
2018-06-15T02:34:10.012Z,1.40
2018-06-15T02:36:39.640Z,1.60
2018-06-15T02:39:10.869Z,2.07
2018-06-15T02:41:40.885Z,1.97
2018-06-15T02:44:10.483Z,2.20
2018-06-15T02:46:40.092Z,1.70
2018-06-15T02:49:09.711Z,1.50
2018-06-15T02:51:39.421Z,1.77
2018-06-15T02:54:09.106Z,2.13
2018-06-15T02:56:38.852Z,1.87
2018-06-15T02:59:08.549Z,4.73
2018-06-15T03:01:38.134Z,2.43
2018-06-15T03:04:07.818Z,1.80
2018-06-15T03:06:37.442Z,1.60
2018-06-15T03:09:07.896Z,2.27
2018-06-15T03:11:37.477Z,2.10
2018-06-15T03:14:07.147Z,1.90
2018-06-15T03:16:36.786Z,2.20
2018-06-15T03:19:06.495Z,2.07
2018-06-15T03:21:36.086Z,1.80
2018-06-15T03:24:05.776Z,1.43
2018-06-15T03:26:35.366Z,2.47
2018-06-15T03:29:05.042Z,2.17
2018-06-15T03:31:34.596Z,2.23
2018-06-15T03:34:04.231Z,2.13
2018-06-15T03:36:33.916Z,1.80
2018-06-15T03:39:03.812Z,1.87
2018-06-15T03:41:33.483Z,2.17
2018-06-15T03:44:03.088Z,2.30
2018-06-15T03:46:32.910Z,2.00
2018-06-15T03:49:02.518Z,1.87
2018-06-15T03:51:32.139Z,2.00
2018-06-15T03:54:02.140Z,2.20
2018-06-15T03:56:31.787Z,2.37
2018-06-15T03:59:01.433Z,1.93
2018-06-15T04:01:31.080Z,1.87
2018-06-15T04:04:00.700Z,1.63
2018-06-15T04:06:30.337Z,2.97
2018-06-15T04:08:59.950Z,2.07
2018-06-15T04:11:29.580Z,2.10
2018-06-15T04:13:59.231Z,1.80
2018-06-15T04:16:28.885Z,2.20
2018-06-15T04:18:58.551Z,1.90
2018-06-15T04:21:28.209Z,2.20
2018-06-15T04:23:57.930Z,1.80
2018-06-15T04:26:27.587Z,1.80
2018-06-15T04:28:57.248Z,1.77
2018-06-15T04:31:26.929Z,2.37
2018-06-15T04:33:57.429Z,1.83
2018-06-15T04:36:27.096Z,1.90
2018-06-15T04:38:56.765Z,2.37
2018-06-15T04:41:26.358Z,2.73
2018-06-15T04:43:56.032Z,2.20
2018-06-15T04:46:25.046Z,2.60
2018-06-15T04:48:54.653Z,2.10
2018-06-15T04:51:24.223Z,2.17
2018-06-15T04:53:53.840Z,2.17
2018-06-15T04:56:23.572Z,2.43
2018-06-15T04:58:53.198Z,2.17
2018-06-15T05:01:22.802Z,3.43
2018-06-15T05:03:52.788Z,2.13
2018-06-15T05:06:22.464Z,2.00
2018-06-15T05:08:52.191Z,2.70
2018-06-15T05:11:21.815Z,2.53
2018-06-15T05:13:51.400Z,2.43
2018-06-15T05:16:21.068Z,2.80
2018-06-15T05:18:50.732Z,2.60
2018-06-15T05:21:20.358Z,2.70
2018-06-15T05:23:49.973Z,2.73
2018-06-15T05:26:19.542Z,2.77
2018-06-15T05:28:49.219Z,2.40
2018-06-15T05:31:18.881Z,2.77
2018-06-15T05:33:48.476Z,2.30
2018-06-15T05:36:18.050Z,2.33
2018-06-15T05:38:47.630Z,2.87
2018-06-15T05:41:17.295Z,2.60
2018-06-15T05:43:46.943Z,2.50
2018-06-15T05:46:16.554Z,1.90
2018-06-15T05:48:46.125Z,2.43
2018-06-15T05:51:15.811Z,2.50
2018-06-15T05:53:45.535Z,3.60
2018-06-15T05:56:15.165Z,2.80
2018-06-15T05:58:44.127Z,3.70
2018-06-15T06:01:13.848Z,2.40
2018-06-15T06:03:43.518Z,2.80
2018-06-15T06:06:13.148Z,2.30
2018-06-15T06:08:42.843Z,2.93
2018-06-15T06:11:12.573Z,2.80
2018-06-15T06:13:42.382Z,2.10
2018-06-15T06:16:12.110Z,2.20
2018-06-15T06:18:42.020Z,2.87
2018-06-15T06:21:11.680Z,2.43
2018-06-15T06:23:41.612Z,2.40
2018-06-15T06:26:11.526Z,2.30
2018-06-15T06:28:41.512Z,2.97
2018-06-15T06:31:11.196Z,2.77
2018-06-15T06:33:41.309Z,3.27
2018-06-15T06:36:10.964Z,3.63
2018-06-15T06:38:41.264Z,2.50
2018-06-15T06:41:10.956Z,2.33
2018-06-15T06:43:40.958Z,2.20
2018-06-15T06:46:10.617Z,2.60
2018-06-15T06:48:40.490Z,2.30
2018-06-15T06:51:10.170Z,2.10
2018-06-15T06:53:40.154Z,2.90
2018-06-15T06:56:09.844Z,2.50
2018-06-15T06:58:39.907Z,2.73
2018-06-15T07:01:09.631Z,3.50
2018-06-15T07:03:39.608Z,4.30
2018-06-15T07:06:09.352Z,3.20
2018-06-15T07:08:39.317Z,2.70
2018-06-15T07:11:09.210Z,3.07
2018-06-15T07:13:39.214Z,3.90
2018-06-15T07:16:08.853Z,3.37
2018-06-15T07:18:38.709Z,3.63
2018-06-15T07:21:08.463Z,3.47
2018-06-15T07:23:38.303Z,3.43
2018-06-15T07:26:08.195Z,3.80
2018-06-15T07:28:38.103Z,3.40
2018-06-15T07:31:07.843Z,3.10
2018-06-15T07:33:37.968Z,3.90
2018-06-15T07:36:07.574Z,3.93
2018-06-15T07:38:37.459Z,3.60
2018-06-15T07:41:07.224Z,3.60
2018-06-15T07:43:36.891Z,3.40
2018-06-15T07:46:06.551Z,3.50
2018-06-15T07:48:36.169Z,3.23
2018-06-15T07:51:05.891Z,3.70
2018-06-15T07:53:35.506Z,3.87
2018-06-15T07:56:05.295Z,4.03
2018-06-15T07:58:34.956Z,3.23
2018-06-15T08:01:04.576Z,3.23
2018-06-15T08:03:40.885Z,3.60
2018-06-15T08:06:10.531Z,3.13
2018-06-15T08:08:40.113Z,3.73
2018-06-15T08:11:09.714Z,3.23
2018-06-15T08:13:39.382Z,3.97
2018-06-15T08:16:09.046Z,3.53
2018-06-15T08:18:38.723Z,4.03
2018-06-15T08:21:08.455Z,15.70
2018-06-15T08:23:38.171Z,34.20
2018-06-15T08:26:07.819Z,44.73
2018-06-15T08:28:37.393Z,37.60
2018-06-15T08:31:07.053Z,21.60
2018-06-15T08:33:36.700Z,16.80
2018-06-15T08:36:06.333Z,13.60
2018-06-15T08:38:36.020Z,10.77
2018-06-15T08:41:05.698Z,13.00
2018-06-15T08:43:35.354Z,7.23
2018-06-15T08:46:05.039Z,5.23
2018-06-15T08:48:34.750Z,4.07
2018-06-15T08:51:04.438Z,4.70
2018-06-15T08:53:34.315Z,5.17
2018-06-15T08:56:03.995Z,5.20
2018-06-15T08:58:33.801Z,5.37
2018-06-15T09:01:03.506Z,6.33
2018-06-15T09:03:33.106Z,4.60
2018-06-15T09:06:02.667Z,4.90
2018-06-15T09:08:32.316Z,4.00
2018-06-15T09:11:01.928Z,4.37
2018-06-15T09:13:31.550Z,3.20
2018-06-15T09:16:01.323Z,8.87
2018-06-15T09:18:31.031Z,4.50
2018-06-15T09:21:00.719Z,2.70
2018-06-15T09:23:30.417Z,2.83
2018-06-15T09:25:59.994Z,2.67
2018-06-15T09:28:29.637Z,2.90
2018-06-15T09:30:59.299Z,2.73
2018-06-15T09:33:28.921Z,2.73
2018-06-15T09:35:58.635Z,2.77
2018-06-15T09:38:28.333Z,2.60
2018-06-15T09:40:57.922Z,3.07
2018-06-15T09:43:27.569Z,2.60
2018-06-15T09:45:57.149Z,2.57
2018-06-15T09:48:26.805Z,4.50
2018-06-15T09:50:56.482Z,32.23
2018-06-15T09:53:26.102Z,44.10
2018-06-15T09:55:57.179Z,30.23
2018-06-15T09:58:27.249Z,205.50
2018-06-15T10:01:01.960Z,148.70
2018-06-15T10:03:31.990Z,117.73
2018-06-15T10:06:01.920Z,56.00
2018-06-15T10:08:31.518Z,33.03
2018-06-15T10:11:01.217Z,22.03
2018-06-15T10:13:30.891Z,12.57
2018-06-15T10:16:00.455Z,9.77
2018-06-15T10:18:30.092Z,6.60
2018-06-15T10:20:59.800Z,4.97
2018-06-15T10:23:29.391Z,3.93
2018-06-15T10:25:58.964Z,3.60
2018-06-15T10:28:28.600Z,16.83
2018-06-15T10:30:58.273Z,12.60
2018-06-15T10:33:27.904Z,8.83
2018-06-15T10:35:57.505Z,6.97
2018-06-15T10:38:27.301Z,8.47
2018-06-15T10:40:56.993Z,7.30
2018-06-15T10:43:26.676Z,10.40
2018-06-15T10:45:56.291Z,7.93
2018-06-15T10:48:25.900Z,7.60
2018-06-15T10:50:55.792Z,9.40
2018-06-15T10:53:25.461Z,7.20
2018-06-15T10:55:54.378Z,7.90
2018-06-15T10:58:24.011Z,4.40
2018-06-15T11:00:53.599Z,3.70
2018-06-15T11:03:23.176Z,2.90
2018-06-15T11:05:52.818Z,2.73
2018-06-15T11:08:22.761Z,3.20
2018-06-15T11:10:52.397Z,3.57
2018-06-15T11:13:22.007Z,2.57
2018-06-15T11:15:51.645Z,2.90
2018-06-15T11:18:21.223Z,3.07
2018-06-15T11:20:50.869Z,2.63
2018-06-15T11:23:20.521Z,2.90
2018-06-15T11:25:50.217Z,2.67
2018-06-15T11:28:19.920Z,2.80
2018-06-15T11:30:49.547Z,3.00
2018-06-15T11:33:19.263Z,3.40
2018-06-15T11:35:48.917Z,2.60
2018-06-15T11:38:18.480Z,3.00
2018-06-15T11:40:48.250Z,2.33
2018-06-15T11:43:17.837Z,2.47
2018-06-15T11:45:47.457Z,2.70
2018-06-15T11:48:17.147Z,2.93
2018-06-15T11:50:46.845Z,2.30
2018-06-15T11:53:16.494Z,2.60
2018-06-15T11:55:46.123Z,3.00
2018-06-15T11:58:15.795Z,2.23
2018-06-15T12:00:45.442Z,2.40
2018-06-15T12:03:14.994Z,2.20
2018-06-15T12:05:44.590Z,2.37
2018-06-15T12:08:14.216Z,2.50
2018-06-15T12:10:43.835Z,2.37
2018-06-15T12:13:13.519Z,2.30
2018-06-15T12:15:43.151Z,2.70
2018-06-15T12:18:12.899Z,2.30
2018-06-15T12:20:42.533Z,2.73
2018-06-15T12:23:12.135Z,2.63
2018-06-15T12:25:41.774Z,3.10
2018-06-15T12:28:11.398Z,2.70
2018-06-15T12:30:41.016Z,2.37
2018-06-15T12:33:10.631Z,2.80
2018-06-15T12:35:40.287Z,2.47
2018-06-15T12:38:09.911Z,2.87
2018-06-15T12:40:42.417Z,3.17
2018-06-15T12:43:12.135Z,2.50
2018-06-15T12:45:41.772Z,2.30
2018-06-15T12:48:11.402Z,2.30
2018-06-15T12:50:41.041Z,2.60
2018-06-15T12:53:10.770Z,2.57
2018-06-15T12:55:40.381Z,2.40
2018-06-15T12:58:10.049Z,2.47
2018-06-15T13:00:39.698Z,2.60
2018-06-15T13:03:09.349Z,2.57
2018-06-15T13:05:38.982Z,2.60
2018-06-15T13:08:08.578Z,2.60
2018-06-15T13:10:38.238Z,2.30
2018-06-15T13:13:07.848Z,2.37
2018-06-15T13:15:37.503Z,2.27
2018-06-15T13:18:07.112Z,2.43
2018-06-15T13:20:39.795Z,2.07
2018-06-15T13:23:12.589Z,2.20
2018-06-15T13:25:46.420Z,2.63
2018-06-15T13:28:19.244Z,2.20
2018-06-15T13:30:52.191Z,2.53
2018-06-15T13:33:24.528Z,2.53
2018-06-15T13:35:57.459Z,2.23
2018-06-15T13:38:30.626Z,2.97
2018-06-15T13:41:04.403Z,2.77
2018-06-15T13:43:37.651Z,2.57
2018-06-15T13:46:10.131Z,2.03
2018-06-15T13:48:43.996Z,2.47
2018-06-15T13:51:16.287Z,2.53
2018-06-15T13:53:49.172Z,2.60
2018-06-15T13:56:21.696Z,2.93
2018-06-15T13:58:55.088Z,2.67
2018-06-15T14:01:27.847Z,2.70
2018-06-15T14:03:59.131Z,3.30
2018-06-15T14:06:30.185Z,2.70
2018-06-15T14:09:01.204Z,3.10
2018-06-15T14:11:32.172Z,3.20
2018-06-15T14:14:03.303Z,3.03
2018-06-15T14:16:35.378Z,3.70
2018-06-15T14:19:06.474Z,4.03
2018-06-15T14:21:38.157Z,3.13
2018-06-15T14:24:09.031Z,3.87
2018-06-15T14:26:39.853Z,3.07
2018-06-15T14:29:10.774Z,3.10
2018-06-15T14:31:41.693Z,3.13
2018-06-15T14:34:13.521Z,2.93
2018-06-15T14:36:44.675Z,2.83
2018-06-15T14:39:15.554Z,2.60
2018-06-15T14:41:46.464Z,3.00
2018-06-15T14:44:16.150Z,2.60
2018-06-15T14:46:45.841Z,3.10
2018-06-15T14:49:15.561Z,3.20
2018-06-15T14:51:45.249Z,3.30
2018-06-15T14:54:14.967Z,2.97
2018-06-15T14:56:44.596Z,3.03
2018-06-15T14:59:14.333Z,2.70
2018-06-15T15:01:43.935Z,2.60
2018-06-15T15:04:13.602Z,2.90
2018-06-15T15:06:43.279Z,2.53
2018-06-15T15:09:12.916Z,2.60
2018-06-15T15:11:42.506Z,2.90
2018-06-15T15:14:12.246Z,2.63
2018-06-15T15:16:41.945Z,2.80
2018-06-15T15:19:11.632Z,3.33
2018-06-15T15:21:41.178Z,3.37
2018-06-15T15:24:10.814Z,3.17
2018-06-15T15:26:40.473Z,3.00
2018-06-15T15:29:10.129Z,3.23
2018-06-15T15:31:39.758Z,2.97
2018-06-15T15:34:09.421Z,2.90
2018-06-15T15:36:39.031Z,2.53
2018-06-15T15:39:10.520Z,2.87
2018-06-15T15:41:40.173Z,3.13
2018-06-15T15:44:10.105Z,2.80
2018-06-15T15:46:39.788Z,2.43
2018-06-15T15:49:09.430Z,2.70
2018-06-15T15:51:39.049Z,2.90
2018-06-15T15:54:08.734Z,3.50
2018-06-15T15:56:38.445Z,2.47
2018-06-15T15:59:08.109Z,2.80
2018-06-15T16:01:37.715Z,2.60
2018-06-15T16:04:07.379Z,3.23
2018-06-15T16:06:37.035Z,3.07
2018-06-15T16:09:07.970Z,2.00
2018-06-15T16:11:37.611Z,2.23
2018-06-15T16:14:07.508Z,2.20
2018-06-15T16:16:37.180Z,2.67
2018-06-15T16:19:06.796Z,2.30
2018-06-15T16:21:36.400Z,2.93
2018-06-15T16:24:06.192Z,2.47
2018-06-15T16:26:35.903Z,2.60
2018-06-15T16:29:05.595Z,2.70
2018-06-15T16:31:35.124Z,2.83
2018-06-15T16:34:04.725Z,2.63
2018-06-15T16:36:34.339Z,2.40
2018-06-15T16:39:04.745Z,2.80
2018-06-15T16:41:37.776Z,2.33
2018-06-15T16:44:07.547Z,3.47
2018-06-15T16:46:45.137Z,2.80
2018-06-15T16:49:14.917Z,2.27
2018-06-15T16:51:45.235Z,2.10
2018-06-15T16:54:14.891Z,2.63
2018-06-15T16:56:44.580Z,2.50
2018-06-15T16:59:14.341Z,2.00
2018-06-15T17:01:43.907Z,2.30
2018-06-15T17:04:13.571Z,2.70
2018-06-15T17:06:43.274Z,2.40
2018-06-15T17:09:12.944Z,2.67
2018-06-15T17:11:42.582Z,2.60
2018-06-15T17:14:12.248Z,3.00
2018-06-15T17:16:41.980Z,3.37
2018-06-15T17:19:11.671Z,2.53
2018-06-15T17:21:41.323Z,2.77
2018-06-15T17:24:10.975Z,2.57
2018-06-15T17:26:40.665Z,2.57
2018-06-15T17:29:10.323Z,2.60
2018-06-15T17:31:39.917Z,2.60
2018-06-15T17:34:09.573Z,2.43
2018-06-15T17:36:46.153Z,2.70
2018-06-15T17:39:15.895Z,2.63
2018-06-15T17:41:45.921Z,2.73
2018-06-15T17:44:15.581Z,2.53
2018-06-15T17:46:45.234Z,2.60
2018-06-15T17:49:14.844Z,2.43
2018-06-15T17:51:44.454Z,3.03
2018-06-15T17:54:14.081Z,2.60
2018-06-15T17:56:43.665Z,2.30
2018-06-15T17:59:13.264Z,2.73
2018-06-15T18:01:43.035Z,2.70
2018-06-15T18:04:12.736Z,3.17
2018-06-15T18:06:42.420Z,2.70
2018-06-15T18:09:12.233Z,2.70
2018-06-15T18:11:41.852Z,2.70
2018-06-15T18:14:11.476Z,3.43
2018-06-15T18:16:41.156Z,2.93
2018-06-15T18:19:10.776Z,3.07
2018-06-15T18:21:40.396Z,3.03
2018-06-15T18:24:09.962Z,2.90
2018-06-15T18:26:39.507Z,3.20
2018-06-15T18:29:09.196Z,2.80
2018-06-15T18:31:38.939Z,3.10
2018-06-15T18:34:08.603Z,3.00
2018-06-15T18:36:38.278Z,3.30
2018-06-15T18:39:12.409Z,3.20
2018-06-15T18:41:42.186Z,3.13
2018-06-15T18:44:11.850Z,3.20
2018-06-15T18:46:41.505Z,2.90
2018-06-15T18:49:11.193Z,2.97
2018-06-15T18:51:40.932Z,3.53
2018-06-15T18:54:10.682Z,2.63
2018-06-15T18:56:40.326Z,3.00
2018-06-15T18:59:10.018Z,3.40
2018-06-15T19:01:40.082Z,3.30
2018-06-15T19:04:09.730Z,2.90
2018-06-15T19:06:39.498Z,3.57
2018-06-15T19:09:11.720Z,3.63
2018-06-15T19:11:42.037Z,2.80
2018-06-15T19:14:12.185Z,3.83
2018-06-15T19:16:42.432Z,3.97
2018-06-15T19:19:12.407Z,3.57
2018-06-15T19:21:42.358Z,3.33
2018-06-15T19:24:12.331Z,3.33
2018-06-15T19:26:42.597Z,3.60
2018-06-15T19:29:13.094Z,4.00
2018-06-15T19:31:43.167Z,3.63
2018-06-15T19:34:13.478Z,3.80
2018-06-15T19:36:43.721Z,3.40
2018-06-15T19:39:13.980Z,3.43
2018-06-15T19:41:44.252Z,3.10
2018-06-15T19:44:14.448Z,3.80
2018-06-15T19:46:44.747Z,3.93
2018-06-15T19:49:15.127Z,3.77
2018-06-15T19:51:45.247Z,3.70
2018-06-15T19:54:15.871Z,3.77
2018-06-15T19:56:45.884Z,3.57
2018-06-15T19:59:15.991Z,3.60
2018-06-15T20:01:46.249Z,3.83
2018-06-15T20:04:16.637Z,3.97
2018-06-15T20:06:46.974Z,3.33
2018-06-15T20:09:17.177Z,3.90
2018-06-15T20:11:47.500Z,3.47
2018-06-15T20:14:17.835Z,4.10
2018-06-15T20:16:48.197Z,3.83
2018-06-15T20:19:18.493Z,3.87
2018-06-15T20:21:48.727Z,3.77
2018-06-15T20:24:18.886Z,3.23
2018-06-15T20:26:48.872Z,4.37
2018-06-15T20:29:19.046Z,4.13
2018-06-15T20:31:49.226Z,4.63
2018-06-15T20:34:19.269Z,4.50
2018-06-15T20:36:49.434Z,4.20
2018-06-15T20:39:19.534Z,4.47
2018-06-15T20:41:49.650Z,3.93
2018-06-15T20:44:19.723Z,4.60
2018-06-15T20:46:50.077Z,4.40
2018-06-15T20:49:20.375Z,4.67
2018-06-15T20:51:50.685Z,4.70
2018-06-15T20:54:20.990Z,5.20
2018-06-15T20:56:51.034Z,4.60
2018-06-15T20:59:20.885Z,5.53
2018-06-15T21:01:50.882Z,5.20
2018-06-15T21:04:20.740Z,4.63
2018-06-15T21:06:50.805Z,5.07
2018-06-15T21:09:20.662Z,5.37
2018-06-15T21:11:50.632Z,5.00
2018-06-15T21:14:20.543Z,4.67
2018-06-15T21:16:50.225Z,5.17
2018-06-15T21:19:19.869Z,4.40
2018-06-15T21:21:49.594Z,4.33
2018-06-15T21:24:19.325Z,5.00
2018-06-15T21:26:48.923Z,4.57
2018-06-15T21:29:18.509Z,4.57
2018-06-15T21:31:48.104Z,5.30
2018-06-15T21:34:17.726Z,4.97
2018-06-15T21:36:46.699Z,4.63
2018-06-15T21:39:16.324Z,5.13
2018-06-15T21:41:45.910Z,5.60
2018-06-15T21:44:15.648Z,7.03
2018-06-15T21:46:45.276Z,5.13
2018-06-15T21:49:14.873Z,4.90
2018-06-15T21:51:44.574Z,4.33
2018-06-15T21:54:14.206Z,4.63
2018-06-15T21:56:43.778Z,4.90
2018-06-15T21:59:13.415Z,4.43
2018-06-15T22:01:43.109Z,4.80
2018-06-15T22:04:12.731Z,4.43
2018-06-15T22:06:42.315Z,4.37
2018-06-15T22:09:11.971Z,4.53
2018-06-15T22:11:41.669Z,3.80
2018-06-15T22:14:11.529Z,4.53
2018-06-15T22:16:46.273Z,4.57
2018-06-15T22:19:15.978Z,4.13
2018-06-15T22:21:45.641Z,3.93
2018-06-15T22:24:15.434Z,3.83
2018-06-15T22:26:45.336Z,3.40
2018-06-15T22:29:15.013Z,3.97
2018-06-15T22:31:44.730Z,4.30
2018-06-15T22:34:14.308Z,3.67
2018-06-15T22:36:43.891Z,4.70
2018-06-15T22:39:15.525Z,3.90
2018-06-15T22:41:45.185Z,3.70
2018-06-15T22:44:14.887Z,4.40
2018-06-15T22:46:44.534Z,4.40
2018-06-15T22:49:14.198Z,3.80
2018-06-15T22:51:43.752Z,4.70
2018-06-15T22:54:13.286Z,3.93
2018-06-15T22:56:42.872Z,3.37
2018-06-15T22:59:12.433Z,3.70
2018-06-15T23:01:42.108Z,3.80
2018-06-15T23:04:11.729Z,4.37
2018-06-15T23:06:41.457Z,3.80
2018-06-15T23:09:12.385Z,3.53
2018-06-15T23:11:42.586Z,4.23
2018-06-15T23:14:12.480Z,3.80
2018-06-15T23:16:42.178Z,3.60
2018-06-15T23:19:11.834Z,3.70
2018-06-15T23:21:41.452Z,3.40
2018-06-15T23:24:11.024Z,3.93
2018-06-15T23:26:40.645Z,3.90
2018-06-15T23:29:10.281Z,4.17
2018-06-15T23:31:39.927Z,3.87
2018-06-15T23:34:09.602Z,4.17
2018-06-15T23:36:39.124Z,4.17
2018-06-15T23:39:09.849Z,3.60
2018-06-15T23:41:39.593Z,4.03
2018-06-15T23:44:09.302Z,3.73
2018-06-15T23:46:38.932Z,3.57
2018-06-15T23:49:08.562Z,3.90
2018-06-15T23:51:38.134Z,3.87
2018-06-15T23:54:07.730Z,3.93
2018-06-15T23:56:37.321Z,4.20
2018-06-15T23:59:07.075Z,4.10
